Time;durP1;ratioP1;P1;durP2;ratioP2;P2;SDS_P1;SDS_P2;PMS_P1;PMS_P2;Temp;Humidity;BMP_temperature;BMP_pressure;BME280_temperature;BME280_humidity;BME280_pressure;Samples;Min_cycle;Max_cycle;Signal;HPM_P1;HPM_P2
2022/01/23 00:00:19;;;;;;;36.85;20.48;;;-2.00;96.10;;;;;;5041037;28;20044;-76
2022/01/23 00:02:46;;;;;;;35.40;19.70;;;-2.00;96.50;;;;;;5053161;28;20040;-76
2022/01/23 00:05:12;;;;;;;45.60;28.60;;;-2.00;96.60;;;;;;5026518;28;20037;-75
2022/01/23 00:07:40;;;;;;;44.45;24.20;;;-2.00;96.60;;;;;;5029759;28;20021;-77
2022/01/23 00:10:06;;;;;;;54.30;27.15;;;-2.00;96.50;;;;;;5050661;28;20043;-77
2022/01/23 00:12:39;;;;;;;53.30;25.83;;;-2.00;96.50;;;;;;5048902;28;20096;-76
2022/01/23 00:17:49;;;;;;;53.00;31.05;;;-2.10;96.50;;;;;;5052907;28;20496;-78
2022/01/23 00:20:15;;;;;;;50.00;28.65;;;-2.10;96.40;;;;;;5051803;28;20029;-76
2022/01/23 00:22:55;;;;;;;54.05;27.52;;;-2.10;96.40;;;;;;5047512;28;20025;-79
2022/01/23 00:30:50;;;;;;;50.72;29.80;;;-2.10;96.50;;;;;;5045898;28;20043;-77
2022/01/23 00:33:17;;;;;;;50.55;32.65;;;-2.10;96.50;;;;;;5045616;28;20028;-78
2022/01/23 00:35:45;;;;;;;58.53;31.48;;;-2.10;96.40;;;;;;5023193;28;20039;-79
2022/01/23 00:38:12;;;;;;;49.50;23.50;;;-2.20;96.60;;;;;;5052899;28;20091;-78
2022/01/23 00:40:40;;;;;;;56.92;31.25;;;-2.20;96.60;;;;;;5052163;28;20029;-78
2022/01/23 00:43:14;;;;;;;54.22;28.40;;;-2.20;96.90;;;;;;5043378;28;20078;-77
2022/01/23 00:45:50;;;;;;;55.25;27.02;;;-2.20;96.90;;;;;;5041743;28;20379;-78
2022/01/23 00:48:18;;;;;;;41.40;23.20;;;-2.30;97.00;;;;;;5041364;28;20067;-80
2022/01/23 00:50:45;;;;;;;43.53;25.08;;;-2.30;97.30;;;;;;5042253;28;20082;-79
2022/01/23 00:53:14;;;;;;;45.13;24.73;;;-2.30;97.30;;;;;;5053762;28;20477;-80
2022/01/23 00:55:44;;;;;;;39.72;23.90;;;-2.30;97.40;;;;;;5052004;28;20132;-79
2022/01/23 00:58:11;;;;;;;40.20;24.92;;;-2.30;97.30;;;;;;5053782;28;20393;-82
2022/01/23 01:00:38;;;;;;;33.88;19.90;;;-2.30;97.00;;;;;;5053749;28;20029;-81
2022/01/23 01:03:04;;;;;;;31.63;19.13;;;-2.30;97.10;;;;;;5036003;28;20497;-80
2022/01/23 01:05:30;;;;;;;38.72;20.67;;;-2.40;97.00;;;;;;5053771;28;20060;-79
2022/01/23 01:07:57;;;;;;;36.47;22.08;;;-2.40;97.10;;;;;;5053906;28;20068;-80
2022/01/23 01:10:39;;;;;;;32.40;18.27;;;-2.40;97.20;;;;;;5057516;28;20078;-79
2022/01/23 01:13:06;;;;;;;38.75;22.30;;;-2.40;97.30;;;;;;5054274;28;20123;-80
2022/01/23 01:15:58;;;;;;;33.30;20.48;;;-2.50;97.30;;;;;;5053855;28;20033;-80
2022/01/23 01:32:09;;;;;;;35.15;19.33;;;-2.40;97.00;;;;;;5042067;28;20059;-81
2022/01/23 01:34:43;;;;;;;37.00;19.70;;;-2.50;97.20;;;;;;5057035;28;20112;-80
2022/01/23 01:37:11;;;;;;;39.20;23.15;;;-2.50;97.30;;;;;;5053104;28;20017;-81
2022/01/23 01:39:37;;;;;;;36.50;21.05;;;-2.50;97.40;;;;;;5053386;28;20032;-81
2022/01/23 01:42:03;;;;;;;38.22;20.02;;;-2.40;97.40;;;;;;5053141;28;20036;-80
2022/01/23 01:44:29;;;;;;;26.73;16.27;;;-2.40;97.50;;;;;;5052692;28;20017;-80
2022/01/23 01:46:55;;;;;;;35.58;21.48;;;-2.40;97.40;;;;;;5052966;28;20508;-79
2022/01/23 01:49:28;;;;;;;33.40;18.67;;;-2.40;97.20;;;;;;5052863;28;20036;-81
2022/01/23 01:51:55;;;;;;;32.80;17.02;;;-2.30;97.20;;;;;;5053013;28;20034;-79
2022/01/23 01:54:23;;;;;;;33.75;20.85;;;-2.30;97.20;;;;;;5057087;28;20154;-81
2022/01/23 01:57:04;;;;;;;35.58;18.75;;;-2.30;97.20;;;;;;5039961;28;20021;-80
2022/01/23 02:09:56;;;;;;;32.28;17.85;;;-2.30;96.40;;;;;;5052634;28;20107;-79
2022/01/23 02:13:02;;;;;;;33.28;18.52;;;-2.40;96.40;;;;;;5052731;28;20049;-80
2022/01/23 02:55:42;;;;;;;36.28;21.77;;;-2.40;97.10;;;;;;5054538;28;20558;-78
2022/01/23 02:58:11;;;;;;;38.42;22.92;;;-2.40;97.20;;;;;;5056520;28;20367;-80
2022/01/23 03:00:48;;;;;;;45.72;24.95;;;-2.40;97.30;;;;;;5038077;28;20111;-81
2022/01/23 03:03:21;;;;;;;34.72;20.15;;;-2.40;97.30;;;;;;5055775;28;20098;-79
2022/01/23 03:06:10;;;;;;;33.42;20.50;;;-2.40;97.40;;;;;;5056144;28;20036;-80
2022/01/23 03:09:06;;;;;;;47.65;25.75;;;-2.40;97.50;;;;;;5055652;28;20127;-81
2022/01/23 03:27:37;;;;;;;44.08;24.52;;;-2.50;97.10;;;;;;5059343;28;20029;-81
2022/01/23 03:30:17;;;;;;;41.70;24.15;;;-2.40;97.30;;;;;;5055706;28;20440;-81
2022/01/23 03:32:48;;;;;;;43.13;23.08;;;-2.50;97.20;;;;;;5043419;28;20490;-80
2022/01/23 03:35:18;;;;;;;49.70;25.95;;;-2.50;97.40;;;;;;5036641;28;20029;-81
2022/01/23 03:37:44;;;;;;;44.00;23.73;;;-2.40;97.30;;;;;;5040126;28;20024;-81
2022/01/23 03:40:11;;;;;;;48.65;24.17;;;-2.40;97.40;;;;;;5037763;28;20109;-81
2022/01/23 03:42:40;;;;;;;48.28;25.52;;;-2.40;97.50;;;;;;5035843;28;20383;-80
2022/01/23 03:50:35;;;;;;;40.70;23.05;;;-2.30;97.80;;;;;;5055337;28;20064;-80
2022/01/23 03:53:01;;;;;;;35.25;21.45;;;-2.30;97.50;;;;;;5054963;28;20029;-81
2022/01/23 03:55:27;;;;;;;39.15;22.40;;;-2.30;97.30;;;;;;5054944;28;20029;-81
2022/01/23 03:57:53;;;;;;;41.25;22.38;;;-2.30;97.00;;;;;;5054853;28;20021;-80
2022/01/23 04:00:19;;;;;;;39.25;20.45;;;-2.30;96.90;;;;;;5054740;28;20026;-82
2022/01/23 04:02:44;;;;;;;34.33;20.67;;;-2.30;96.90;;;;;;5054829;28;20029;-82
2022/01/23 04:05:10;;;;;;;33.92;21.63;;;-2.30;97.00;;;;;;5036649;28;20025;-79
2022/01/23 04:07:36;;;;;;;31.35;20.13;;;-2.30;97.00;;;;;;5054567;28;20032;-80
2022/01/23 04:10:04;;;;;;;32.45;20.17;;;-2.30;97.20;;;;;;5054906;28;20064;-79
2022/01/23 04:21:14;;;;;;;31.02;19.08;;;-2.20;96.70;;;;;;5054651;28;20025;-81
2022/01/23 04:35:42;;;;;;;31.05;20.52;;;-2.10;97.00;;;;;;5010971;28;20071;-81
2022/01/23 04:45:54;;;;;;;40.42;22.92;;;-2.20;96.30;;;;;;5074968;28;20083;-81
2022/01/23 05:04:27;;;;;;;33.88;20.00;;;-2.40;96.60;;;;;;5044892;28;20474;-82
2022/01/23 05:07:01;;;;;;;31.73;21.38;;;-2.40;96.70;;;;;;5035626;28;20033;-81
2022/01/23 05:09:28;;;;;;;34.35;20.70;;;-2.40;97.10;;;;;;5041141;28;20063;-81
2022/01/23 05:11:57;;;;;;;32.65;18.48;;;-2.40;96.90;;;;;;5034618;28;20477;-81
2022/01/23 05:14:46;;;;;;;29.17;19.88;;;-2.30;96.80;;;;;;5053844;28;20082;-81
2022/01/23 05:17:13;;;;;;;32.28;17.77;;;-2.30;96.80;;;;;;5044585;28;20072;-81
2022/01/23 05:19:40;;;;;;;34.15;20.55;;;-2.30;96.70;;;;;;5033944;28;20386;-82
2022/01/23 05:24:38;;;;;;;38.45;21.98;;;-2.30;96.70;;;;;;5040332;28;20041;-82
2022/01/23 05:27:09;;;;;;;33.05;20.48;;;-2.30;96.70;;;;;;5024657;28;20487;-82
2022/01/23 05:29:36;;;;;;;38.50;24.15;;;-2.30;96.60;;;;;;5027163;28;20103;-82
2022/01/23 05:32:04;;;;;;;39.97;23.77;;;-2.20;96.60;;;;;;5036135;28;20045;-81
2022/01/23 05:34:29;;;;;;;31.80;20.70;;;-2.20;96.40;;;;;;4998489;28;20368;-83
2022/01/23 05:36:55;;;;;;;39.60;22.27;;;-2.20;96.30;;;;;;5033398;28;20044;-82
2022/01/23 05:39:24;;;;;;;37.10;21.13;;;-2.20;96.70;;;;;;5033518;28;20104;-79
2022/01/23 05:41:54;;;;;;;36.10;23.50;;;-2.20;96.70;;;;;;5016098;28;20028;-80
2022/01/23 05:44:21;;;;;;;42.30;23.98;;;-2.20;96.70;;;;;;5034131;28;20041;-81
2022/01/23 05:46:47;;;;;;;40.40;20.30;;;-2.20;96.60;;;;;;5047481;28;20094;-82
2022/01/23 05:49:13;;;;;;;29.50;18.25;;;-2.20;96.80;;;;;;5052791;28;20469;-82
2022/01/23 05:51:38;;;;;;;36.83;21.98;;;-2.20;96.80;;;;;;5047137;28;20021;-82
2022/01/23 05:54:04;;;;;;;34.20;19.33;;;-2.20;96.80;;;;;;5053823;28;20603;-82
2022/01/23 05:56:30;;;;;;;26.08;13.57;;;-2.20;96.90;;;;;;5065244;28;20037;-81
2022/01/23 05:58:56;;;;;;;37.85;21.70;;;-2.20;96.70;;;;;;5066493;28;20021;-82
2022/01/23 06:01:23;;;;;;;37.58;24.23;;;-2.20;96.50;;;;;;5054488;28;20389;-82
2022/01/23 06:03:48;;;;;;;25.98;13.48;;;-2.30;96.30;;;;;;5035092;28;20388;-85
2022/01/23 06:06:14;;;;;;;35.65;23.30;;;-2.20;96.30;;;;;;5047196;28;20080;-83
2022/01/23 06:08:40;;;;;;;33.75;19.48;;;-2.30;96.40;;;;;;5032770;28;20027;-84
2022/01/23 06:11:06;;;;;;;37.92;21.02;;;-2.30;96.40;;;;;;5014879;28;20133;-82
2022/01/23 06:13:32;;;;;;;34.65;21.38;;;-2.30;96.50;;;;;;5033095;28;20028;-82
2022/01/23 06:15:59;;;;;;;32.30;20.73;;;-2.30;96.60;;;;;;5032617;28;20088;-82
2022/01/23 06:18:25;;;;;;;39.10;22.08;;;-2.30;96.60;;;;;;5032484;28;20021;-82
2022/01/23 06:20:51;;;;;;;36.83;23.05;;;-2.20;96.50;;;;;;5032463;28;20037;-83
2022/01/23 06:23:17;;;;;;;37.10;20.95;;;-2.20;96.10;;;;;;5040353;28;20465;-83
2022/01/23 06:25:47;;;;;;;35.28;19.88;;;-2.30;95.90;;;;;;5039036;28;20097;-84
2022/01/23 06:28:28;;;;;;;35.63;20.33;;;-2.20;96.30;;;;;;5032443;28;20022;-82
2022/01/23 06:30:57;;;;;;;39.83;21.20;;;-2.20;96.20;;;;;;5031664;28;20358;-83
2022/01/23 06:33:22;;;;;;;37.88;21.17;;;-2.20;95.80;;;;;;5031909;28;20017;-83
2022/01/23 06:35:48;;;;;;;36.95;21.35;;;-2.30;95.90;;;;;;5032523;28;20086;-84
2022/01/23 06:38:14;;;;;;;35.42;23.83;;;-2.30;95.90;;;;;;5032155;28;20025;-84
2022/01/23 06:40:40;;;;;;;34.55;19.67;;;-2.30;95.90;;;;;;5033805;28;20026;-83
2022/01/23 06:43:06;;;;;;;41.78;21.60;;;-2.30;96.20;;;;;;5037380;28;20028;-82
2022/01/23 06:45:31;;;;;;;35.05;21.65;;;-2.30;96.10;;;;;;5042176;28;20490;-82
2022/01/23 06:47:57;;;;;;;35.20;21.33;;;-2.30;96.30;;;;;;5047419;28;20104;-82
2022/01/23 06:50:24;;;;;;;38.80;22.25;;;-2.30;96.40;;;;;;5040745;28;20013;-83
2022/01/23 06:52:50;;;;;;;38.22;23.90;;;-2.30;96.40;;;;;;5054525;28;20025;-81
2022/01/23 06:55:17;;;;;;;41.47;22.67;;;-2.30;96.50;;;;;;5048609;28;20029;-82
2022/01/23 06:57:43;;;;;;;46.72;24.73;;;-2.30;96.40;;;;;;5055047;28;20488;-80
2022/01/23 07:00:09;;;;;;;33.65;21.80;;;-2.20;96.10;;;;;;5038708;28;20028;-81
2022/01/23 07:02:35;;;;;;;34.60;20.55;;;-2.30;95.90;;;;;;5043254;28;20163;-80
2022/01/23 07:05:01;;;;;;;33.92;19.38;;;-2.30;95.90;;;;;;5035247;28;20045;-83
2022/01/23 07:07:27;;;;;;;36.80;22.80;;;-2.30;95.90;;;;;;5042881;28;20086;-82
2022/01/23 07:09:53;;;;;;;29.83;18.15;;;-2.20;96.10;;;;;;5036218;28;20528;-81
2022/01/23 07:12:18;;;;;;;37.10;21.38;;;-2.20;96.10;;;;;;5042867;28;20033;-80
2022/01/23 07:14:44;;;;;;;37.95;19.85;;;-2.20;96.10;;;;;;5038493;28;20017;-81
2022/01/23 07:17:10;;;;;;;37.42;21.90;;;-2.20;96.10;;;;;;5032303;28;20049;-81
2022/01/23 07:19:35;;;;;;;35.65;19.02;;;-2.20;96.10;;;;;;5045277;28;20032;-82
2022/01/23 07:22:01;;;;;;;39.05;24.17;;;-2.10;96.30;;;;;;5034026;28;20045;-82
2022/01/23 07:24:28;;;;;;;46.92;26.23;;;-2.00;96.50;;;;;;5047167;28;20017;-82
2022/01/23 07:26:53;;;;;;;34.22;20.70;;;-2.10;95.90;;;;;;5042036;28;20044;-82
2022/01/23 07:29:35;;;;;;;42.65;22.00;;;-2.00;95.80;;;;;;5069121;28;20017;-82
2022/01/23 07:32:07;;;;;;;34.22;20.85;;;-2.00;95.70;;;;;;5036632;28;20048;-81
2022/01/23 07:34:39;;;;;;;44.45;23.55;;;-2.00;95.60;;;;;;5034759;28;20433;-81
2022/01/23 07:37:06;;;;;;;36.63;21.60;;;-2.00;95.40;;;;;;5033368;28;20044;-81
2022/01/23 07:39:31;;;;;;;37.00;18.63;;;-2.00;95.50;;;;;;5044564;28;20559;-80
2022/01/23 07:41:57;;;;;;;36.80;21.80;;;-2.00;95.50;;;;;;5036500;28;20029;-81
2022/01/23 07:44:23;;;;;;;41.05;24.05;;;-2.10;95.20;;;;;;5038520;28;20444;-82
2022/01/23 07:46:51;;;;;;;39.22;23.98;;;-2.10;95.00;;;;;;5056261;28;20040;-80
2022/01/23 07:49:17;;;;;;;38.15;23.85;;;-2.10;95.00;;;;;;5039789;28;20009;-82
2022/01/23 07:51:43;;;;;;;39.55;21.35;;;-2.10;95.10;;;;;;5036885;28;20108;-81
2022/01/23 07:54:08;;;;;;;44.10;23.27;;;-2.10;95.40;;;;;;5041949;28;20021;-81
2022/01/23 07:56:34;;;;;;;47.20;22.90;;;-2.10;95.60;;;;;;5048289;28;20444;-82
2022/01/23 07:59:00;;;;;;;35.63;20.08;;;-2.00;95.60;;;;;;5037225;28;20025;-81
2022/01/23 08:01:26;;;;;;;37.67;20.45;;;-2.00;95.40;;;;;;5034993;28;20045;-82
2022/01/23 08:03:52;;;;;;;34.45;20.13;;;-1.90;95.30;;;;;;5034544;28;20078;-81
2022/01/23 08:06:17;;;;;;;31.75;21.33;;;-1.90;95.40;;;;;;5017188;28;20018;-80
2022/01/23 08:08:44;;;;;;;38.20;18.48;;;-1.80;95.30;;;;;;5035262;28;20135;-82
2022/01/23 08:11:10;;;;;;;41.58;20.55;;;-1.70;95.40;;;;;;5034760;28;20029;-80
2022/01/23 08:13:36;;;;;;;35.45;23.02;;;-1.70;95.30;;;;;;5035492;28;20065;-82
2022/01/23 08:16:02;;;;;;;37.88;22.63;;;-1.60;95.00;;;;;;5035722;28;20061;-81
2022/01/23 08:18:28;;;;;;;39.72;21.48;;;-1.60;94.90;;;;;;5020500;28;20053;-82
2022/01/23 08:20:54;;;;;;;35.80;21.65;;;-1.60;94.50;;;;;;5027061;28;20049;-81
2022/01/23 08:23:21;;;;;;;44.17;24.23;;;-1.60;94.30;;;;;;5037014;28;20093;-83
2022/01/23 08:25:46;;;;;;;40.33;22.02;;;-1.70;94.30;;;;;;5038172;28;20106;-81
2022/01/23 08:28:15;;;;;;;40.53;23.85;;;-1.60;94.50;;;;;;5040525;28;20105;-79
2022/01/23 08:30:41;;;;;;;41.33;20.65;;;-1.60;94.50;;;;;;5036306;28;20047;-82
2022/01/23 08:33:07;;;;;;;47.05;22.88;;;-1.60;94.70;;;;;;5034174;28;20026;-81
2022/01/23 08:35:33;;;;;;;49.00;24.98;;;-1.50;94.50;;;;;;5019671;28;20075;-80
2022/01/23 08:37:59;;;;;;;32.42;19.08;;;-1.50;94.60;;;;;;5035440;28;20528;-81
2022/01/23 08:40:47;;;;;;;41.28;23.45;;;-1.50;94.90;;;;;;5037521;28;20145;-80
2022/01/23 08:43:16;;;;;;;39.10;23.77;;;-1.50;95.00;;;;;;5019220;28;20040;-82
2022/01/23 08:45:41;;;;;;;43.28;25.73;;;-1.50;94.80;;;;;;5043822;28;20057;-80
2022/01/23 08:48:07;;;;;;;36.30;22.45;;;-1.50;94.40;;;;;;5053681;28;20486;-78
2022/01/23 08:50:33;;;;;;;45.20;24.00;;;-1.50;94.00;;;;;;5053766;28;20024;-78
2022/01/23 08:52:59;;;;;;;41.90;22.98;;;-1.60;94.00;;;;;;5052000;28;20020;-79
2022/01/23 08:55:25;;;;;;;39.50;20.70;;;-1.60;94.40;;;;;;5036278;28;20041;-79
2022/01/23 08:57:51;;;;;;;38.30;23.17;;;-1.50;94.70;;;;;;5044398;28;20025;-79
2022/01/23 09:00:18;;;;;;;42.28;23.30;;;-1.50;94.70;;;;;;5052964;28;20032;-79
2022/01/23 09:02:44;;;;;;;37.75;21.30;;;-1.50;94.20;;;;;;5047730;28;20032;-77
2022/01/23 09:05:10;;;;;;;38.35;23.88;;;-1.50;94.30;;;;;;5046400;28;20076;-79
2022/01/23 09:07:36;;;;;;;41.80;23.67;;;-1.50;94.20;;;;;;5044523;28;20017;-78
2022/01/23 09:10:03;;;;;;;41.97;23.40;;;-1.50;94.20;;;;;;5040702;28;20450;-79
2022/01/23 09:15:21;;;;;;;37.80;23.65;;;-1.40;94.60;;;;;;5011791;28;20179;-80
2022/01/23 09:17:47;;;;;;;40.67;22.02;;;-1.30;94.60;;;;;;5042241;28;20489;-83
2022/01/23 09:20:15;;;;;;;46.85;24.90;;;-1.30;94.40;;;;;;5044464;28;20096;-81
2022/01/23 09:22:40;;;;;;;39.35;22.73;;;-1.30;94.10;;;;;;5030880;28;20036;-80
2022/01/23 09:25:06;;;;;;;47.22;24.95;;;-1.20;94.10;;;;;;5033559;28;20097;-80
2022/01/23 09:27:33;;;;;;;42.60;24.35;;;-1.20;94.00;;;;;;5035919;28;20029;-81
2022/01/23 09:30:06;;;;;;;40.38;21.83;;;-1.10;93.80;;;;;;5035718;28;20112;-83
2022/01/23 09:32:32;;;;;;;36.08;21.23;;;-1.10;93.50;;;;;;5051886;28;20112;-84
2022/01/23 09:34:58;;;;;;;41.58;22.85;;;-1.10;93.30;;;;;;5054734;28;20083;-81
2022/01/23 09:37:23;;;;;;;34.90;18.35;;;-1.10;93.00;;;;;;5034916;28;20025;-80
2022/01/23 09:39:50;;;;;;;35.30;21.15;;;-1.10;93.50;;;;;;5048618;28;20051;-79
2022/01/23 09:42:20;;;;;;;36.17;18.23;;;-1.10;93.90;;;;;;5035397;28;20083;-79
2022/01/23 09:44:59;;;;;;;48.53;26.25;;;-1.00;94.10;;;;;;5029876;28;20423;-79
2022/01/23 09:47:26;;;;;;;34.00;18.55;;;-1.00;93.10;;;;;;5035136;28;20083;-82
2022/01/23 09:49:54;;;;;;;37.20;22.77;;;-1.00;93.70;;;;;;5033738;28;20032;-82
2022/01/23 09:52:21;;;;;;;40.95;23.27;;;-1.10;93.30;;;;;;5035712;28;20109;-82
2022/01/23 09:54:59;;;;;;;44.50;23.05;;;-1.10;93.30;;;;;;5033356;28;20112;-83
2022/01/23 09:57:29;;;;;;;33.78;20.73;;;-1.10;93.30;;;;;;5027240;28;20490;-78
2022/01/23 10:00:00;;;;;;;32.60;20.98;;;-1.00;93.20;;;;;;5046786;28;20033;-80
2022/01/23 10:02:27;;;;;;;34.58;20.83;;;-1.00;93.20;;;;;;5046983;28;20035;-77
2022/01/23 10:04:55;;;;;;;34.50;21.83;;;-1.00;92.60;;;;;;5034969;28;20473;-77
2022/01/23 10:07:21;;;;;;;35.13;21.75;;;-1.00;92.60;;;;;;5033129;28;20029;-78
2022/01/23 10:09:54;;;;;;;36.80;21.30;;;-1.00;92.40;;;;;;5039146;28;20025;-78
2022/01/23 10:12:26;;;;;;;32.92;20.95;;;-1.00;92.10;;;;;;5032294;28;20525;-79
2022/01/23 10:14:53;;;;;;;34.20;21.63;;;-1.00;92.30;;;;;;5037862;28;20044;-79
2022/01/23 10:17:19;;;;;;;36.80;22.98;;;-1.10;92.40;;;;;;5036343;28;20014;-80
2022/01/23 10:19:45;;;;;;;46.33;22.25;;;-1.00;92.50;;;;;;5048207;28;20031;-80
2022/01/23 10:22:12;;;;;;;34.28;20.90;;;-1.00;92.50;;;;;;5029319;28;20026;-79
2022/01/23 10:24:38;;;;;;;39.85;23.65;;;-0.90;92.60;;;;;;5022499;28;20017;-80
2022/01/23 10:27:04;;;;;;;32.58;21.42;;;-0.90;92.60;;;;;;5054680;28;20549;-75
2022/01/23 10:29:34;;;;;;;34.15;21.50;;;-0.80;92.50;;;;;;5041558;28;20108;-80
2022/01/23 10:32:03;;;;;;;40.08;23.80;;;-0.80;92.50;;;;;;5041952;28;20078;-81
2022/01/23 10:34:45;;;;;;;37.42;24.60;;;-0.80;92.30;;;;;;5045874;28;20018;-80
2022/01/23 10:37:22;;;;;;;34.80;21.30;;;-0.70;92.00;;;;;;5051608;28;20048;-78
2022/01/23 10:39:48;;;;;;;37.78;20.90;;;-0.80;91.70;;;;;;5052612;28;20047;-80
2022/01/23 10:46:38;;;;;;;32.67;19.63;;;-0.70;92.00;;;;;;5053259;28;20540;-79
2022/01/23 10:50:52;;;;;;;36.60;22.35;;;-0.70;91.90;;;;;;5051964;28;20091;-80
2022/01/23 10:53:20;;;;;;;35.53;21.23;;;-0.70;91.80;;;;;;5051854;28;20508;-81
2022/01/23 10:55:47;;;;;;;30.45;20.35;;;-0.70;91.70;;;;;;5051780;28;20391;-81
2022/01/23 10:58:24;;;;;;;34.92;20.52;;;-0.60;92.40;;;;;;5052016;28;20051;-80
2022/01/23 11:00:50;;;;;;;32.65;18.15;;;-0.60;92.70;;;;;;5034075;28;20037;-80
2022/01/23 11:03:23;;;;;;;32.83;22.10;;;-0.60;92.40;;;;;;5051985;28;20100;-81
2022/01/23 11:05:50;;;;;;;34.70;22.05;;;-0.60;92.00;;;;;;5051642;28;20024;-79
2022/01/23 11:08:23;;;;;;;36.38;22.08;;;-0.60;92.00;;;;;;5051091;28;20021;-81
2022/01/23 11:11:00;;;;;;;40.65;24.98;;;-0.60;92.40;;;;;;5051998;28;20025;-80
2022/01/23 11:19:40;;;;;;;40.50;26.50;;;-0.70;91.90;;;;;;5068269;28;20485;-82
2022/01/23 11:22:06;;;;;;;48.15;24.58;;;-0.80;92.00;;;;;;5060226;28;20512;-81
2022/01/23 11:24:45;;;;;;;37.85;23.08;;;-0.80;92.10;;;;;;5058505;28;20497;-79
2022/01/23 11:27:12;;;;;;;41.28;24.95;;;-0.80;92.30;;;;;;5056944;28;20485;-82
2022/01/23 11:30:06;;;;;;;38.10;23.63;;;-0.80;92.10;;;;;;5056876;28;20067;-84
2022/01/23 11:32:38;;;;;;;39.63;24.38;;;-0.80;92.40;;;;;;5056081;28;20056;-84
2022/01/23 11:35:12;;;;;;;44.55;27.52;;;-0.80;92.40;;;;;;5026215;28;20454;-82
2022/01/23 11:37:46;;;;;;;41.55;24.42;;;-0.80;92.40;;;;;;5035717;28;20454;-80
2022/01/23 11:53:58;;;;;;;37.42;23.30;;;-0.80;92.50;;;;;;5055353;28;20389;-82
2022/01/23 11:59:19;;;;;;;37.33;22.75;;;-0.90;92.10;;;;;;5055551;28;20060;-79
2022/01/23 12:02:07;;;;;;;40.65;24.02;;;-1.00;92.20;;;;;;5037143;28;20021;-79
2022/01/23 12:04:34;;;;;;;41.03;21.38;;;-1.10;92.50;;;;;;5054830;28;20032;-79
2022/01/23 12:07:10;;;;;;;40.63;22.90;;;-1.10;92.70;;;;;;5055134;28;20753;-79
2022/01/23 12:09:37;;;;;;;31.85;20.60;;;-1.00;92.40;;;;;;5054888;28;20045;-81
2022/01/23 12:12:33;;;;;;;37.97;20.13;;;-1.10;92.50;;;;;;5037266;28;20036;-81
2022/01/23 12:18:17;;;;;;;30.80;21.23;;;-1.10;92.20;;;;;;5055444;28;20117;-79
2022/01/23 12:20:44;;;;;;;38.33;21.33;;;-1.20;92.30;;;;;;5037445;28;20529;-80
2022/01/23 12:23:11;;;;;;;34.80;20.80;;;-1.20;92.20;;;;;;5045584;28;20030;-81
2022/01/23 12:25:57;;;;;;;34.80;18.00;;;-1.20;92.70;;;;;;5035087;28;20099;-79
2022/01/23 12:28:29;;;;;;;34.85;19.45;;;-1.20;93.10;;;;;;5015557;28;20022;-81
2022/01/23 12:30:56;;;;;;;40.13;23.13;;;-1.20;93.70;;;;;;5035445;28;20052;-78
2022/01/23 12:33:40;;;;;;;37.55;24.25;;;-1.20;93.90;;;;;;5035583;28;20110;-80
2022/01/23 12:36:05;;;;;;;40.15;22.27;;;-1.20;93.60;;;;;;5053747;28;20036;-78
2022/01/23 12:38:38;;;;;;;39.88;24.25;;;-1.30;93.20;;;;;;5051110;28;20017;-80
2022/01/23 12:41:27;;;;;;;39.08;23.45;;;-1.40;93.10;;;;;;5053959;28;20025;-78
2022/01/23 12:43:57;;;;;;;29.25;15.57;;;-1.40;93.40;;;;;;5054145;28;20489;-77
2022/01/23 12:46:33;;;;;;;38.75;21.38;;;-1.50;93.70;;;;;;5053210;28;20530;-79
2022/01/23 12:49:15;;;;;;;42.13;23.85;;;-1.50;94.30;;;;;;5049085;28;20073;-80
2022/01/23 12:51:42;;;;;;;41.40;21.13;;;-1.50;94.00;;;;;;5053153;28;20033;-79
2022/01/23 12:54:11;;;;;;;37.45;20.88;;;-1.50;94.00;;;;;;5036303;28;20022;-78
2022/01/23 12:56:42;;;;;;;41.95;24.92;;;-1.50;94.00;;;;;;5034499;28;20501;-82
2022/01/23 12:59:14;;;;;;;36.53;23.67;;;-1.50;93.90;;;;;;5033549;28;20030;-79
2022/01/23 13:01:47;;;;;;;36.80;22.85;;;-1.50;93.60;;;;;;5033989;28;20052;-79
2022/01/23 13:04:15;;;;;;;37.85;22.75;;;-1.50;93.90;;;;;;5034129;28;20049;-79
2022/01/23 13:06:55;;;;;;;39.35;22.20;;;-1.50;93.50;;;;;;5035740;28;20021;-78
2022/01/23 13:12:32;;;;;;;35.88;23.45;;;-1.50;93.70;;;;;;5033721;28;20032;-80
2022/01/23 13:15:19;;;;;;;45.05;23.67;;;-1.60;93.60;;;;;;5033468;28;20036;-79
2022/01/23 13:31:41;;;;;;;40.42;24.58;;;-1.80;93.30;;;;;;5041140;28;20076;-80
2022/01/23 13:34:31;;;;;;;41.28;23.95;;;-1.80;93.30;;;;;;5036815;28;20018;-83
2022/01/23 13:37:06;;;;;;;43.40;23.77;;;-1.90;93.30;;;;;;5023920;28;20049;-79
2022/01/23 13:39:48;;;;;;;33.00;20.00;;;-1.80;93.50;;;;;;5033988;28;20022;-78
2022/01/23 13:59:27;;;;;;;39.03;22.77;;;-1.90;93.90;;;;;;5053235;28;20062;-78
2022/01/23 14:04:36;;;;;;;37.72;24.02;;;-2.00;94.00;;;;;;5052931;28;20025;-79
2022/01/23 14:07:02;;;;;;;41.80;22.08;;;-2.00;93.90;;;;;;5052516;28;20021;-78
2022/01/23 14:09:28;;;;;;;38.97;23.02;;;-1.90;94.00;;;;;;5052451;28;20025;-78
2022/01/23 14:11:54;;;;;;;41.10;21.33;;;-2.00;94.00;;;;;;5052507;28;20111;-78
2022/01/23 14:14:26;;;;;;;38.67;22.17;;;-2.00;94.00;;;;;;5052554;28;20021;-77
2022/01/23 14:17:09;;;;;;;39.97;22.40;;;-1.90;94.00;;;;;;5052312;28;20090;-78
2022/01/23 14:19:37;;;;;;;38.70;22.60;;;-2.00;93.90;;;;;;5052418;28;20041;-77
2022/01/23 14:22:03;;;;;;;38.58;23.73;;;-2.00;93.80;;;;;;5016112;28;20112;-78
2022/01/23 14:24:34;;;;;;;35.10;18.90;;;-2.00;93.60;;;;;;5032982;28;20052;-76
2022/01/23 14:27:11;;;;;;;42.95;23.45;;;-2.10;93.80;;;;;;5032544;28;20396;-77
2022/01/23 14:29:50;;;;;;;37.22;22.25;;;-2.10;94.10;;;;;;5015331;28;20026;-76
2022/01/23 14:32:26;;;;;;;40.78;22.77;;;-2.20;94.10;;;;;;5014512;28;20096;-76
2022/01/23 14:35:10;;;;;;;37.92;22.17;;;-2.20;94.30;;;;;;5032105;28;20421;-77
2022/01/23 14:37:37;;;;;;;41.22;21.65;;;-2.20;94.40;;;;;;5014455;28;20025;-76
2022/01/23 14:40:10;;;;;;;40.88;23.63;;;-2.20;94.50;;;;;;5031891;28;20025;-77
2022/01/23 14:42:36;;;;;;;39.10;21.92;;;-2.20;94.60;;;;;;5031962;28;20069;-77
2022/01/23 14:45:09;;;;;;;38.53;23.63;;;-2.30;94.70;;;;;;5032052;28;20049;-79
2022/01/23 14:47:39;;;;;;;37.85;24.77;;;-2.20;94.70;;;;;;5032349;28;20039;-80
2022/01/23 14:50:12;;;;;;;42.90;24.40;;;-2.20;94.60;;;;;;5040255;28;20018;-82
2022/01/23 14:52:40;;;;;;;35.78;23.00;;;-2.20;94.60;;;;;;5052297;28;20071;-80
2022/01/23 14:55:07;;;;;;;35.38;21.67;;;-2.20;94.40;;;;;;5052314;28;20121;-82
2022/01/23 14:57:34;;;;;;;37.33;21.88;;;-2.20;94.40;;;;;;5034511;28;20107;-81
2022/01/23 15:00:04;;;;;;;32.88;18.73;;;-2.20;94.70;;;;;;5034733;28;20119;-80
2022/01/23 15:02:30;;;;;;;39.45;23.63;;;-2.20;95.00;;;;;;5052047;28;20454;-81
2022/01/23 15:04:58;;;;;;;35.42;20.73;;;-2.20;95.20;;;;;;5052271;28;20112;-75
2022/01/23 15:07:24;;;;;;;36.28;21.15;;;-2.20;95.30;;;;;;5035370;28;20031;-77
2022/01/23 15:09:51;;;;;;;39.80;22.58;;;-2.20;95.40;;;;;;5032424;28;20080;-77
2022/01/23 15:12:18;;;;;;;36.20;22.20;;;-2.20;95.00;;;;;;5014673;28;20029;-79
2022/01/23 15:14:44;;;;;;;40.60;22.42;;;-2.20;95.00;;;;;;5032095;28;20035;-80
2022/01/23 15:17:10;;;;;;;41.90;23.13;;;-2.30;95.00;;;;;;5031961;28;20094;-79
2022/01/23 15:19:36;;;;;;;45.38;24.30;;;-2.30;95.00;;;;;;5032465;28;20021;-79
2022/01/23 15:22:02;;;;;;;42.38;24.60;;;-2.20;95.10;;;;;;5033238;28;20026;-79
2022/01/23 15:24:28;;;;;;;42.17;26.13;;;-2.20;95.10;;;;;;5045619;28;20025;-79
2022/01/23 15:26:54;;;;;;;40.05;22.77;;;-2.20;94.90;;;;;;5051451;28;20410;-79
2022/01/23 15:29:20;;;;;;;41.85;24.42;;;-2.20;94.80;;;;;;5040892;28;20124;-78
2022/01/23 15:31:47;;;;;;;44.53;25.90;;;-2.10;94.80;;;;;;5033504;28;20049;-79
2022/01/23 15:34:15;;;;;;;39.97;23.08;;;-2.10;94.70;;;;;;5032962;28;20025;-79
2022/01/23 15:36:42;;;;;;;39.95;22.80;;;-2.10;94.60;;;;;;5031452;28;20045;-79
2022/01/23 15:39:11;;;;;;;37.22;23.48;;;-2.10;94.60;;;;;;5031701;28;20029;-78
2022/01/23 15:41:37;;;;;;;45.65;25.17;;;-2.10;94.40;;;;;;5031484;28;20037;-83
2022/01/23 15:44:03;;;;;;;39.70;22.85;;;-2.10;94.50;;;;;;5031851;28;20026;-79
2022/01/23 15:46:29;;;;;;;45.92;24.35;;;-2.10;94.50;;;;;;5021037;28;20045;-77
2022/01/23 15:48:55;;;;;;;40.97;25.15;;;-2.10;94.40;;;;;;5045901;28;20056;-77
2022/01/23 15:51:21;;;;;;;40.25;25.17;;;-2.00;94.40;;;;;;5043746;28;20544;-79
2022/01/23 15:53:46;;;;;;;41.50;24.60;;;-2.00;94.40;;;;;;5027419;28;20028;-80
2022/01/23 15:56:12;;;;;;;40.92;24.63;;;-2.00;94.30;;;;;;5037158;28;20039;-77
2022/01/23 15:58:38;;;;;;;41.70;23.73;;;-2.00;94.30;;;;;;5044206;28;20025;-79
2022/01/23 16:01:04;;;;;;;39.58;24.27;;;-2.00;94.10;;;;;;5050706;28;20436;-79
2022/01/23 16:03:30;;;;;;;46.40;24.52;;;-2.10;94.00;;;;;;5044121;28;20021;-79
2022/01/23 16:05:57;;;;;;;39.03;23.27;;;-2.00;94.20;;;;;;5049879;28;20021;-78
2022/01/23 16:08:24;;;;;;;39.67;24.42;;;-2.00;94.10;;;;;;5035229;28;20021;-79
2022/01/23 16:10:50;;;;;;;39.43;21.57;;;-2.10;93.90;;;;;;5034562;28;20498;-79